createdAt,value
2022-08-09T00:00:11.160Z,18.40
2022-08-09T00:02:47.325Z,18.40
2022-08-09T00:06:18.308Z,18.40
2022-08-09T00:08:31.951Z,18.40
2022-08-09T00:11:06.064Z,18.30
2022-08-09T00:13:50.292Z,18.30
2022-08-09T00:16:26.389Z,18.30
2022-08-09T00:19:09.229Z,18.30
2022-08-09T00:21:38.913Z,18.30
2022-08-09T00:24:24.820Z,18.30
2022-08-09T00:26:55.504Z,18.30
2022-08-09T00:29:39.639Z,18.30
2022-08-09T00:32:26.793Z,18.30
2022-08-09T00:35:03.408Z,18.30
2022-08-09T00:37:32.520Z,18.20
2022-08-09T00:40:10.247Z,18.20
2022-08-09T00:44:10.556Z,18.20
2022-08-09T00:45:34.749Z,18.10
2022-08-09T00:48:04.019Z,17.70
2022-08-09T00:50:37.775Z,18.10
2022-08-09T00:53:10.175Z,18.10
2022-08-09T00:56:04.420Z,18.10
2022-08-09T00:58:27.662Z,18.10
2022-08-09T01:00:57.031Z,18.00
2022-08-09T01:03:45.617Z,18.00
2022-08-09T01:06:20.987Z,18.00
2022-08-09T01:09:11.014Z,18.00
2022-08-09T01:11:55.617Z,18.00
2022-08-09T01:14:37.368Z,18.00
2022-08-09T01:17:12.323Z,17.90
2022-08-09T01:20:02.721Z,17.90
2022-08-09T01:22:46.547Z,17.80
2022-08-09T01:25:25.314Z,17.80
2022-08-09T01:27:54.463Z,17.90
2022-08-09T01:30:28.749Z,17.80
2022-08-09T01:33:10.092Z,18.00
2022-08-09T01:35:59.812Z,17.70
2022-08-09T01:38:31.757Z,17.70
2022-08-09T01:41:07.073Z,17.70
2022-08-09T01:43:48.025Z,17.70
2022-08-09T01:46:26.535Z,17.70
2022-08-09T01:48:59.939Z,17.60
2022-08-09T01:51:44.638Z,17.60
2022-08-09T01:54:33.551Z,17.70
2022-08-09T01:57:08.129Z,17.40
2022-08-09T01:59:50.781Z,17.60
2022-08-09T02:02:31.035Z,17.50
2022-08-09T02:05:05.466Z,17.50
2022-08-09T02:08:35.960Z,17.50
2022-08-09T02:10:51.146Z,17.50
2022-08-09T02:13:22.168Z,17.50
2022-08-09T02:15:56.401Z,17.50
2022-08-09T02:18:26.941Z,17.90
2022-08-09T02:21:09.193Z,17.50
2022-08-09T02:23:43.244Z,17.50
2022-08-09T02:26:26.834Z,17.30
2022-08-09T02:29:06.758Z,17.50
2022-08-09T02:31:39.254Z,17.50
2022-08-09T02:34:40.400Z,17.60
2022-08-09T02:37:06.789Z,17.60
2022-08-09T02:39:45.104Z,17.60
2022-08-09T02:42:24.863Z,17.60
2022-08-09T02:45:08.505Z,17.60
2022-08-09T02:47:58.102Z,17.60
2022-08-09T02:50:38.356Z,17.60
2022-08-09T02:53:17.402Z,17.60
2022-08-09T02:55:59.272Z,17.50
2022-08-09T02:58:35.807Z,17.60
2022-08-09T03:01:11.336Z,17.60
2022-08-09T03:04:17.873Z,17.60
2022-08-09T03:06:39.257Z,17.60
2022-08-09T03:09:12.509Z,17.60
2022-08-09T03:12:06.031Z,17.60
2022-08-09T03:14:32.117Z,17.60
2022-08-09T03:17:01.717Z,17.60
2022-08-09T03:19:59.384Z,17.60
2022-08-09T03:22:25.738Z,17.60
2022-08-09T03:25:25.870Z,17.60
2022-08-09T03:27:59.410Z,17.50
2022-08-09T03:30:30.056Z,17.50
2022-08-09T03:33:18.574Z,17.40
2022-08-09T03:36:12.430Z,17.60
2022-08-09T03:38:41.774Z,17.40
2022-08-09T03:41:16.064Z,17.30
2022-08-09T03:44:03.831Z,17.30
2022-08-09T03:46:33.600Z,17.30
2022-08-09T03:49:08.012Z,17.20
2022-08-09T03:51:58.175Z,17.20
2022-08-09T03:54:32.148Z,17.20
2022-08-09T03:57:04.538Z,17.80
2022-08-09T03:59:43.187Z,17.20
2022-08-09T04:02:28.229Z,17.60
2022-08-09T04:05:05.809Z,17.20
2022-08-09T04:07:53.436Z,17.20
2022-08-09T04:10:28.823Z,17.20
2022-08-09T04:13:01.323Z,17.20
2022-08-09T04:16:17.327Z,17.10
2022-08-09T04:18:21.209Z,17.10
2022-08-09T04:20:49.382Z,17.00
2022-08-09T04:23:17.767Z,17.10
2022-08-09T04:25:51.678Z,17.10
2022-08-09T04:28:33.814Z,17.40
2022-08-09T04:31:09.865Z,17.00
2022-08-09T04:33:51.539Z,17.00
2022-08-09T04:36:23.435Z,16.90
2022-08-09T04:38:53.339Z,17.10
2022-08-09T04:41:23.810Z,17.30
2022-08-09T04:44:06.984Z,16.90
2022-08-09T04:46:58.676Z,16.90
2022-08-09T04:49:52.574Z,16.90
2022-08-09T04:52:27.710Z,16.90
2022-08-09T04:55:00.250Z,17.10
2022-08-09T04:57:54.328Z,17.00
2022-08-09T05:00:17.181Z,17.00
2022-08-09T05:02:51.896Z,17.10
2022-08-09T05:05:32.279Z,17.10
2022-08-09T05:08:08.833Z,17.10
2022-08-09T05:10:36.773Z,17.10
2022-08-09T05:13:04.479Z,17.20
2022-08-09T05:15:43.190Z,17.10
2022-08-09T05:18:39.732Z,16.70
2022-08-09T05:21:20.751Z,17.40
2022-08-09T05:23:59.699Z,17.50
2022-08-09T05:26:45.582Z,17.60
2022-08-09T05:29:24.146Z,17.70
2022-08-09T05:32:00.578Z,17.70
2022-08-09T05:34:32.658Z,17.80
2022-08-09T05:37:06.047Z,17.80
2022-08-09T05:39:42.648Z,17.80
2022-08-09T05:42:17.723Z,17.80
2022-08-09T05:44:55.841Z,17.80
2022-08-09T05:47:27.324Z,17.80
2022-08-09T05:50:35.163Z,17.90
2022-08-09T05:52:53.575Z,17.90
2022-08-09T05:55:24.282Z,17.90
2022-08-09T05:57:56.627Z,17.90
2022-08-09T06:00:30.388Z,17.90
2022-08-09T06:03:03.421Z,17.90
2022-08-09T06:05:56.970Z,18.00
2022-08-09T06:08:24.334Z,17.70
2022-08-09T06:10:56.914Z,18.00
2022-08-09T06:13:25.500Z,18.20
2022-08-09T06:15:56.124Z,18.00
2022-08-09T06:18:25.433Z,18.10
2022-08-09T06:20:57.919Z,18.00
2022-08-09T06:23:58.918Z,18.10
2022-08-09T06:26:21.198Z,18.10
2022-08-09T06:28:59.287Z,18.10
2022-08-09T06:31:39.680Z,18.10
2022-08-09T06:34:19.152Z,18.10
2022-08-09T06:36:46.630Z,18.30
2022-08-09T06:39:14.786Z,18.20
2022-08-09T06:42:09.382Z,18.30
2022-08-09T06:44:33.347Z,18.30
2022-08-09T06:47:00.691Z,18.30
2022-08-09T06:50:11.364Z,18.40
2022-08-09T06:52:17.916Z,18.40
2022-08-09T06:54:45.858Z,18.50
2022-08-09T06:57:14.290Z,18.40
2022-08-09T07:00:48.977Z,18.50
2022-08-09T07:02:31.879Z,18.50
2022-08-09T07:05:00.462Z,18.50
2022-08-09T07:08:00.308Z,18.50
2022-08-09T07:10:22.520Z,18.50
2022-08-09T07:12:58.225Z,18.50
2022-08-09T07:16:39.741Z,18.60
2022-08-09T07:18:16.635Z,18.60
2022-08-09T07:20:44.894Z,18.60
2022-08-09T07:23:19.032Z,18.70
2022-08-09T07:25:52.121Z,18.70
2022-08-09T07:28:26.115Z,18.70
2022-08-09T07:30:55.758Z,18.70
2022-08-09T07:33:23.373Z,18.80
2022-08-09T07:35:54.707Z,18.80
2022-08-09T07:38:23.157Z,18.90
2022-08-09T07:41:10.034Z,18.90
2022-08-09T07:43:50.051Z,18.90
2022-08-09T07:46:25.327Z,19.00
2022-08-09T07:48:59.445Z,19.00
2022-08-09T07:52:06.085Z,19.00
2022-08-09T07:54:27.690Z,19.00
2022-08-09T07:56:58.614Z,19.20
2022-08-09T07:59:34.599Z,19.20
2022-08-09T08:02:20.256Z,19.20
2022-08-09T08:04:48.974Z,19.20
2022-08-09T08:08:06.654Z,19.30
2022-08-09T08:10:10.827Z,19.30
2022-08-09T08:12:46.378Z,19.30
2022-08-09T08:15:24.346Z,19.30
2022-08-09T08:17:58.018Z,19.30
2022-08-09T08:20:32.374Z,19.30
2022-08-09T08:23:15.974Z,19.30
2022-08-09T08:25:48.505Z,19.20
2022-08-09T08:28:31.942Z,19.20
2022-08-09T08:31:10.508Z,19.20
2022-08-09T08:33:53.372Z,19.20
2022-08-09T08:36:29.109Z,19.30
2022-08-09T08:38:57.862Z,19.30
2022-08-09T08:41:41.829Z,19.30
2022-08-09T08:44:14.722Z,19.40
2022-08-09T08:46:59.906Z,19.40
2022-08-09T08:49:38.934Z,19.50
2022-08-09T08:52:58.521Z,19.40
2022-08-09T08:55:19.139Z,19.40
2022-08-09T08:57:57.343Z,19.40
2022-08-09T09:00:34.338Z,19.30
2022-08-09T09:03:08.773Z,19.30
2022-08-09T09:06:00.679Z,19.40
2022-08-09T09:08:40.180Z,19.40
2022-08-09T09:11:17.393Z,19.50
2022-08-09T09:13:56.307Z,19.50
2022-08-09T09:16:30.476Z,19.50
2022-08-09T09:19:37.598Z,19.50
2022-08-09T09:22:11.953Z,19.50
2022-08-09T09:24:45.907Z,19.60
2022-08-09T09:28:02.998Z,19.60
2022-08-09T09:30:26.144Z,19.60
2022-08-09T09:33:16.526Z,19.70
2022-08-09T09:36:02.433Z,19.80
2022-08-09T09:38:48.955Z,19.80
2022-08-09T09:41:33.026Z,19.90
2022-08-09T09:44:27.869Z,19.90
2022-08-09T09:47:10.528Z,20.00
2022-08-09T09:50:06.918Z,20.00
2022-08-09T09:52:52.447Z,20.10
2022-08-09T09:55:32.100Z,20.10
2022-08-09T09:58:17.435Z,20.10
2022-08-09T10:00:58.939Z,20.20
2022-08-09T10:03:40.447Z,20.30
2022-08-09T10:06:12.647Z,20.30
2022-08-09T10:08:55.211Z,20.40
2022-08-09T10:12:04.395Z,20.50
2022-08-09T10:14:33.604Z,20.50
2022-08-09T10:17:40.687Z,20.60
2022-08-09T10:20:00.228Z,20.60
2022-08-09T10:22:40.236Z,20.60
2022-08-09T10:25:11.763Z,20.60
2022-08-09T10:27:57.198Z,20.60
2022-08-09T10:32:13.710Z,21.00
2022-08-09T10:34:05.282Z,20.70
2022-08-09T10:36:11.669Z,20.80
2022-08-09T10:38:56.326Z,20.90
2022-08-09T10:41:27.981Z,20.90
2022-08-09T10:43:59.743Z,21.00
2022-08-09T10:47:20.589Z,21.00
2022-08-09T10:50:30.862Z,21.10
2022-08-09T10:53:19.608Z,21.10
2022-08-09T10:55:58.235Z,21.10
2022-08-09T10:58:37.117Z,21.20
2022-08-09T11:03:11.028Z,21.20
2022-08-09T11:04:32.629Z,21.70
2022-08-09T11:07:01.156Z,20.90
2022-08-09T11:09:47.732Z,21.30
2022-08-09T11:12:29.389Z,21.50
2022-08-09T11:15:24.821Z,21.50
2022-08-09T11:18:03.765Z,21.50
2022-08-09T11:20:47.180Z,21.50
2022-08-09T11:23:23.872Z,21.60
2022-08-09T11:26:00.482Z,21.60
2022-08-09T11:28:38.826Z,21.70
2022-08-09T11:31:50.453Z,22.00
2022-08-09T11:34:42.846Z,21.70
2022-08-09T11:37:24.527Z,21.70
2022-08-09T11:40:06.567Z,21.70
2022-08-09T11:42:48.445Z,21.80
2022-08-09T11:45:21.632Z,21.80
2022-08-09T11:47:52.383Z,21.80
2022-08-09T11:50:54.953Z,21.90
2022-08-09T11:53:57.716Z,21.90
2022-08-09T11:56:02.958Z,22.00
2022-08-09T11:58:33.804Z,22.00
2022-08-09T12:01:08.891Z,22.00
2022-08-09T12:03:57.400Z,22.00
2022-08-09T12:06:32.428Z,22.00
2022-08-09T12:09:19.250Z,22.10
2022-08-09T12:12:12.148Z,22.20
2022-08-09T12:15:07.745Z,22.20
2022-08-09T12:17:34.417Z,22.30
2022-08-09T12:20:21.853Z,22.30
2022-08-09T12:22:56.181Z,22.30
2022-08-09T12:25:34.714Z,22.40
2022-08-09T12:29:15.302Z,22.40
2022-08-09T12:31:11.115Z,22.40
2022-08-09T12:33:58.931Z,22.50
2022-08-09T12:36:31.387Z,22.50
2022-08-09T12:39:00.621Z,22.40
2022-08-09T12:41:39.294Z,22.40
2022-08-09T12:44:10.175Z,22.50
2022-08-09T12:46:48.934Z,22.50
2022-08-09T12:49:18.612Z,22.60
2022-08-09T12:52:02.406Z,22.60
2022-08-09T12:56:12.013Z,22.70
2022-08-09T12:57:46.342Z,22.70
2022-08-09T13:00:40.736Z,22.70
2022-08-09T13:03:08.589Z,22.70
2022-08-09T13:06:14.650Z,22.80
2022-08-09T13:08:40.907Z,22.80
2022-08-09T13:11:22.706Z,22.90
2022-08-09T13:14:42.230Z,23.00
2022-08-09T13:16:51.342Z,23.00
2022-08-09T13:20:07.170Z,22.90
2022-08-09T13:22:37.349Z,23.00
2022-08-09T13:25:14.370Z,23.00
2022-08-09T13:27:54.712Z,23.00
2022-08-09T13:31:11.085Z,23.00
2022-08-09T13:33:23.618Z,23.00
2022-08-09T13:36:38.920Z,23.10
2022-08-09T13:38:56.556Z,23.10
2022-08-09T13:41:57.992Z,23.10
2022-08-09T13:44:17.055Z,23.10
2022-08-09T13:47:26.446Z,23.20
2022-08-09T13:49:38.057Z,23.20
2022-08-09T13:52:22.925Z,23.30
2022-08-09T13:54:59.102Z,23.20
2022-08-09T13:57:35.632Z,23.30
2022-08-09T14:00:12.574Z,23.20
2022-08-09T14:03:02.159Z,23.20
2022-08-09T14:06:00.089Z,23.20
2022-08-09T14:08:18.257Z,23.30
2022-08-09T14:10:52.424Z,23.30
2022-08-09T14:14:15.945Z,23.30
2022-08-09T14:16:15.867Z,23.30
2022-08-09T14:18:49.471Z,23.40
2022-08-09T14:21:37.865Z,23.40
2022-08-09T14:24:18.284Z,23.50
2022-08-09T14:26:51.173Z,23.50
2022-08-09T14:30:15.156Z,23.50
2022-08-09T14:32:13.091Z,23.50
2022-08-09T14:34:43.699Z,23.40
2022-08-09T14:37:12.463Z,23.50
2022-08-09T14:39:46.671Z,23.50
2022-08-09T14:42:30.166Z,23.50
2022-08-09T14:46:38.826Z,23.50
2022-08-09T14:47:57.138Z,23.50
2022-08-09T14:50:27.923Z,23.50
2022-08-09T14:52:56.849Z,23.50
2022-08-09T14:55:25.345Z,23.50
2022-08-09T14:57:56.758Z,23.50
2022-08-09T15:00:25.161Z,23.50
2022-08-09T15:02:58.328Z,23.40
2022-08-09T15:05:29.598Z,23.40
2022-08-09T15:07:58.409Z,23.50
2022-08-09T15:10:26.981Z,23.70
2022-08-09T15:12:55.817Z,23.50
2022-08-09T15:15:24.292Z,23.50
2022-08-09T15:17:56.847Z,23.60
2022-08-09T15:21:57.605Z,23.60
2022-08-09T15:24:00.707Z,23.60
2022-08-09T15:26:02.257Z,23.60
2022-08-09T15:28:33.209Z,23.70
2022-08-09T15:31:13.335Z,23.60
2022-08-09T15:34:17.738Z,23.70
2022-08-09T15:36:33.141Z,23.80
2022-08-09T15:39:01.019Z,23.80
2022-08-09T15:41:31.586Z,23.80
2022-08-09T15:44:01.822Z,23.80
2022-08-09T15:46:33.165Z,23.90
2022-08-09T15:49:21.742Z,23.90
2022-08-09T15:52:03.943Z,23.90
2022-08-09T15:54:49.492Z,23.90
2022-08-09T15:57:18.985Z,23.90
2022-08-09T16:00:07.919Z,23.90
2022-08-09T16:02:35.378Z,23.90
2022-08-09T16:05:04.423Z,23.80
2022-08-09T16:07:39.487Z,23.80
2022-08-09T16:10:17.328Z,23.80
2022-08-09T16:13:02.457Z,23.70
2022-08-09T16:16:11.421Z,23.70
2022-08-09T16:18:18.189Z,23.60
2022-08-09T16:20:46.697Z,23.60
2022-08-09T16:23:14.151Z,23.60
2022-08-09T16:25:42.262Z,23.50
2022-08-09T16:28:17.285Z,23.50
2022-08-09T16:30:54.134Z,23.50
2022-08-09T16:33:27.473Z,23.40
2022-08-09T16:36:03.080Z,23.40
2022-08-09T16:38:36.055Z,23.40
2022-08-09T16:41:04.492Z,23.40
2022-08-09T16:43:40.591Z,23.40
2022-08-09T16:46:12.416Z,23.40
2022-08-09T16:48:55.958Z,23.30
2022-08-09T16:51:29.365Z,23.30
2022-08-09T16:54:25.840Z,23.30
2022-08-09T16:56:49.069Z,23.30
2022-08-09T16:59:17.243Z,23.20
2022-08-09T17:01:51.095Z,23.20
2022-08-09T17:04:28.037Z,23.10
2022-08-09T17:08:41.282Z,23.10
2022-08-09T17:09:47.492Z,23.10
2022-08-09T17:12:16.182Z,23.10
2022-08-09T17:14:49.121Z,23.00
2022-08-09T17:17:27.223Z,23.00
2022-08-09T17:20:28.318Z,22.90
2022-08-09T17:22:51.972Z,22.90
2022-08-09T17:25:30.387Z,22.90
2022-08-09T17:28:03.460Z,22.80
2022-08-09T17:30:31.767Z,22.80
2022-08-09T17:33:22.611Z,22.70
2022-08-09T17:35:50.701Z,22.70
2022-08-09T17:38:32.061Z,22.70
2022-08-09T17:41:02.854Z,22.70
2022-08-09T17:43:37.433Z,22.70
2022-08-09T17:46:09.429Z,22.60
2022-08-09T17:48:52.001Z,22.60
2022-08-09T17:51:20.920Z,22.50
2022-08-09T17:53:54.713Z,22.50
2022-08-09T17:56:26.591Z,22.40
2022-08-09T17:59:02.939Z,22.40
2022-08-09T18:02:03.380Z,22.30
2022-08-09T18:04:20.707Z,22.30
2022-08-09T18:06:54.947Z,22.30
2022-08-09T18:09:44.244Z,22.30
2022-08-09T18:13:38.292Z,22.20
2022-08-09T18:22:33.954Z,22.10
2022-08-09T18:25:01.775Z,22.00
2022-08-09T18:28:02.103Z,21.90
2022-08-09T18:30:39.329Z,21.90
2022-08-09T18:33:05.199Z,21.90
2022-08-09T18:35:58.176Z,21.80
2022-08-09T18:38:26.972Z,21.70
2022-08-09T18:40:55.796Z,21.70
2022-08-09T18:43:25.256Z,21.60
2022-08-09T18:46:51.369Z,21.70
2022-08-09T18:48:42.361Z,21.60
2022-08-09T18:51:10.181Z,21.60
2022-08-09T18:53:59.826Z,21.50
2022-08-09T18:56:28.549Z,21.50
2022-08-09T18:58:57.847Z,21.50
2022-08-09T19:01:32.205Z,21.40
2022-08-09T19:04:13.256Z,21.40
2022-08-09T19:06:48.857Z,21.40
2022-08-09T19:09:34.188Z,21.40
2022-08-09T19:12:09.314Z,21.30
2022-08-09T19:14:38.053Z,21.30
2022-08-09T19:17:05.621Z,21.20
2022-08-09T19:19:41.682Z,21.20
2022-08-09T19:22:09.488Z,21.10
2022-08-09T19:25:11.937Z,21.10
2022-08-09T19:27:28.745Z,21.10
2022-08-09T19:30:22.636Z,21.00
2022-08-09T19:32:44.882Z,20.90
2022-08-09T19:35:13.937Z,20.90
2022-08-09T19:37:54.831Z,20.90
2022-08-09T19:40:34.498Z,20.80
2022-08-09T19:43:05.436Z,20.80
2022-08-09T19:45:40.332Z,20.70
2022-08-09T19:48:10.935Z,20.70
2022-08-09T19:50:49.315Z,20.70
2022-08-09T19:53:20.623Z,20.70
2022-08-09T19:56:02.106Z,20.60
2022-08-09T19:58:34.311Z,20.60
2022-08-09T20:01:05.815Z,20.60
2022-08-09T20:04:36.822Z,20.50
2022-08-09T20:07:58.600Z,20.50
2022-08-09T20:10:38.486Z,20.40
2022-08-09T20:13:20.186Z,20.30
2022-08-09T20:16:35.105Z,20.30
2022-08-09T20:19:04.010Z,20.30
2022-08-09T20:25:02.592Z,20.30
2022-08-09T20:27:46.519Z,20.20
2022-08-09T20:30:32.046Z,20.20
2022-08-09T20:33:16.544Z,20.20
2022-08-09T20:35:59.114Z,20.20
2022-08-09T20:39:28.169Z,20.20
2022-08-09T20:41:49.579Z,20.20
2022-08-09T20:44:36.160Z,20.20
2022-08-09T20:47:45.261Z,20.10
2022-08-09T20:50:48.100Z,20.10
2022-08-09T20:53:18.762Z,20.10
2022-08-09T20:56:02.050Z,20.00
2022-08-09T20:58:32.901Z,19.90
2022-08-09T21:01:33.719Z,20.00
2022-08-09T21:04:14.138Z,19.90
2022-08-09T21:06:45.206Z,19.90
2022-08-09T21:09:14.055Z,19.80
2022-08-09T21:14:31.247Z,19.70
2022-08-09T21:17:00.010Z,19.80
2022-08-09T21:20:18.832Z,19.70
2022-08-09T21:22:36.287Z,19.60
2022-08-09T21:25:21.334Z,19.70
2022-08-09T21:27:52.995Z,19.60
2022-08-09T21:30:22.135Z,19.40
2022-08-09T21:48:52.888Z,19.40
2022-08-09T21:51:35.723Z,19.30
2022-08-09T21:54:03.802Z,19.30
2022-08-09T21:56:43.012Z,19.30
2022-08-09T21:59:19.122Z,19.30
2022-08-09T22:02:00.476Z,19.20
2022-08-09T22:04:55.206Z,19.20
2022-08-09T22:07:23.280Z,19.20
2022-08-09T22:10:04.787Z,19.20
2022-08-09T22:12:32.637Z,19.20
2022-08-09T22:15:00.942Z,19.10
2022-08-09T22:17:32.103Z,19.20
2022-08-09T22:20:02.660Z,19.10
2022-08-09T22:22:31.372Z,19.10
2022-08-09T22:26:06.843Z,19.10
2022-08-09T22:27:49.517Z,19.00
2022-08-09T22:30:26.373Z,19.00
2022-08-09T22:33:01.650Z,19.00
2022-08-09T22:36:01.219Z,19.00
2022-08-09T22:38:19.644Z,19.00
2022-08-09T22:40:49.081Z,19.10
2022-08-09T22:44:03.319Z,19.10
2022-08-09T22:48:13.130Z,19.10
2022-08-09T22:49:09.682Z,19.00
2022-08-09T22:51:39.592Z,19.00
2022-08-09T22:54:21.270Z,19.00
2022-08-09T22:56:50.784Z,18.90
2022-08-09T22:59:56.932Z,18.90
2022-08-09T23:02:11.250Z,18.80
2022-08-09T23:04:53.863Z,20.10
2022-08-09T23:08:27.284Z,18.70
2022-08-09T23:10:32.704Z,18.70
2022-08-09T23:13:03.699Z,18.70
2022-08-09T23:15:31.270Z,18.70
2022-08-09T23:17:58.758Z,18.60
2022-08-09T23:20:29.193Z,18.50
2022-08-09T23:22:56.689Z,18.50
2022-08-09T23:25:24.187Z,18.50
2022-08-09T23:28:14.497Z,18.50
2022-08-09T23:30:51.315Z,18.50
2022-08-09T23:33:23.332Z,18.50
2022-08-09T23:36:06.456Z,18.50
2022-08-09T23:38:48.956Z,18.40
2022-08-09T23:41:28.443Z,18.40
2022-08-09T23:43:58.879Z,18.40
2022-08-09T23:46:27.560Z,18.30
2022-08-09T23:48:55.742Z,18.20
2022-08-09T23:51:23.397Z,18.30
2022-08-09T23:53:52.535Z,18.20
2022-08-09T23:56:53.520Z,18.20
2022-08-09T23:59:08.951Z,18.20
